Latest Weather Observations for Barimunya

IDW60801

Issued at 11:05 pm WST Wednesday 17 September 2014 (issued every 30 minutes, with the page automatically refreshed every 10 minutes)

About weather observations | Map of weather stations | Latest weather observations for WA | Other Formats
Station Details ID: 505053 Name: BARIMUNYA Lat: -22.67 Lon: 119.16 Height: 629.17 m
Data from the previous 72 hours. | See also: Recent months for locations in Western Australia
Date/Time
WST
Temp
°C
App
Temp
°C
Dew
Point
Rel
Hum
%
Delta-T
°C
Wind Press
QNH
hPa
Press
MSL
hPa
Rain
since 9 am
mm
Dir
 
Spd
km/h
Gust
km/h
Spd
kts
Gust
kts
17/11:00pm 26.0 21.0 -0.9 17 12.6 WNW 15 20 8 11 1017.7 1014.8 -
17/10:30pm 26.8 21.1 -1.1 16 13.1 NW 19 28 10 15 1017.9 1015.0 -
17/10:00pm 27.3 20.7 -0.7 16 13.3 NW 24 37 13 20 1017.9 1015.0 -
17/09:30pm 27.1 21.4 -0.9 16 13.3 NNW 19 30 10 16 1017.8 1014.9 -
17/09:00pm 26.9 22.3 -1.0 16 13.2 N 13 17 7 9 1017.6 1014.7 0.0
17/08:30pm 27.5 22.5 -1.4 15 13.6 NNW 15 20 8 11 1017.2 1014.4 -
17/08:00pm 28.0 23.0 -1.0 15 13.8 NNW 15 20 8 11 1017.0 1014.2 -
17/07:30pm 27.7 23.1 -1.3 15 13.7 NNW 13 17 7 9 1016.6 1013.7 -
17/07:00pm 28.6 24.1 -0.5 15 14.1 NNW 13 19 7 10 1016.1 1013.2 -
17/06:30pm 29.2 24.2 -1.0 14 14.5 NNW 15 20 8 11 1015.5 1012.7 -
17/06:00pm 29.9 24.5 -1.5 13 15.0 NNW 17 22 9 12 1015.2 1012.3 -
17/05:30pm 30.9 25.4 -1.8 12 15.7 N 17 28 9 15 1014.9 1012.0 -
17/05:00pm 31.7 25.2 -2.3 11 16.3 NNW 22 32 12 17 1014.7 1011.8 -
17/04:30pm 32.3 25.9 -1.9 11 16.6 NNW 22 33 12 18 1014.4 1011.5 -
17/04:00pm 32.8 26.6 -2.8 10 17.0 N 20 32 11 17 1014.2 1011.3 -
17/03:30pm 32.5 26.3 -3.0 10 16.9 NW 20 28 11 15 1014.0 1011.0 -
17/03:00pm 33.2 27.1 -2.5 10 17.2 N 20 39 11 21 1014.2 1011.3 -
17/02:30pm 33.3 25.7 -2.4 10 17.3 NNW 28 41 15 22 1014.3 1011.4 -
17/02:00pm 32.4 26.6 -1.8 11 16.6 N 19 35 10 19 1014.4 1011.5 -
17/01:30pm 32.7 24.8 -1.6 11 16.7 NW 30 37 16 20 1014.8 1011.9 -
17/01:00pm 32.5 25.9 -0.5 12 16.4 N 24 35 13 19 1015.3 1012.4 -
17/12:56pm 32.2 24.8 -0.8 12 16.3 N 28 46 15 25 1015.4 1012.6 -
17/12:30pm 32.0 25.3 -0.9 12 16.2 N 24 32 13 17 1015.5 1012.7 -
17/12:00pm 31.4 25.0 -1.4 12 15.9 NNW 22 35 12 19 1015.9 1013.0 -
17/11:30am 31.0 25.1 -0.6 13 15.5 NW 20 33 11 18 1016.4 1013.5 0.0
17/11:00am 30.8 25.4 1.2 15 14.9 WNW 19 28 10 15 1016.9 1014.1 0.0
17/10:30am 29.9 26.0 1.4 16 14.4 WNW 11 19 6 10 1017.1 1014.3 0.0
17/10:00am 29.2 25.9 2.5 18 13.6 SW 9 19 5 10 1017.5 1014.6 0.0
17/09:30am 28.1 24.9 3.0 20 12.8 SW 9 13 5 7 1017.9 1015.0 0.0
17/09:00am 27.0 24.5 3.5 22 12.0 SW 6 13 3 7 1017.9 1015.0 0.0
17/08:30am 25.7 23.9 3.6 24 11.3 SSE 2 7 1 4 1017.9 1015.0 0.0
17/08:00am 24.5 22.1 4.3 27 10.3 NW 6 7 3 4 1017.6 1014.7 0.0
17/07:30am 22.7 21.4 4.2 30 9.3 CALM 0 0 0 0 1017.1 1014.3 0.0
17/07:00am 21.2 18.7 3.9 32 8.6 W 6 9 3 5 1016.5 1013.6 0.0
17/06:30am 20.0 17.2 3.3 33 8.1 W 7 11 4 6 1016.1 1013.2 0.0
17/06:00am 20.3 17.1 3.1 32 8.4 WSW 9 11 5 6 1015.8 1012.9 0.0
17/05:30am 19.7 17.0 2.6 32 8.2 W 6 11 3 6 1015.4 1012.6 0.0
17/05:00am 20.0 17.0 1.9 30 8.6 W 7 11 4 6 1015.1 1012.2 0.0
17/04:30am 20.0 17.9 1.4 29 8.7 SSW 2 7 1 4 1014.9 1012.0 0.0
17/04:00am 20.1 16.5 0.5 27 9.1 W 9 13 5 7 1014.5 1011.6 0.0
17/03:30am 20.4 17.3 0.3 26 9.3 WNW 6 9 3 5 1014.5 1011.6 0.0
17/03:00am 20.4 17.6 -0.3 25 9.4 WNW 4 9 2 5 1014.5 1011.6 0.0
17/02:30am 21.4 17.6 -0.6 23 10.1 WNW 9 11 5 6 1014.7 1011.8 0.0
17/02:00am 21.9 17.4 -0.1 23 10.2 W 13 15 7 8 1014.7 1011.8 0.0
17/01:30am 22.4 17.5 -0.3 22 10.5 WNW 15 19 8 10 1014.7 1011.8 0.0
17/01:00am 22.3 18.2 -0.4 22 10.5 WNW 11 13 6 7 1014.9 1012.0 0.0
17/12:30am 23.2 18.6 -1.0 20 11.1 WNW 13 13 7 7 1015.1 1012.2 0.0
17/12:00am 23.9 19.3 -1.1 19 11.5 WNW 13 15 7 8 1015.2 1012.3 0.0
 
Date/Time
WST
Temp
°C
App
Temp
°C
Dew
Point
Rel
Hum
%
Delta-T
°C
Wind Press
QNH
hPa
Press
MSL
hPa
Rain
since 9 am
mm
Dir
 
Spd
km/h
Gust
km/h
Spd
kts
Gust
kts
16/11:30pm 25.2 18.9 -0.8 18 12.2 W 22 32 12 17 1015.2 1012.3 0.0
16/11:00pm 27.9 21.3 -3.0 13 14.2 NW 22 30 12 16 1015.0 1012.1 0.0
16/10:30pm 27.6 22.0 -3.3 13 14.1 NW 17 26 9 14 1015.1 1012.2 0.0
16/10:00pm 27.8 21.8 -1.2 15 13.8 NW 20 28 11 15 1015.0 1012.1 0.0
16/09:30pm 28.2 22.6 0.9 17 13.5 NW 20 33 11 18 1015.0 1012.1 0.0
16/09:00pm 28.2 23.5 0.9 17 13.5 NNW 15 20 8 11 1015.0 1012.1 0.0
16/08:30pm 28.4 23.3 1.0 17 13.6 NNW 17 24 9 13 1014.9 1012.0 0.0
16/08:00pm 28.6 23.8 0.3 16 13.9 NNW 15 20 8 11 1014.6 1011.7 0.0
16/07:30pm 29.2 24.4 -0.1 15 14.3 NNW 15 20 8 11 1014.2 1011.3 0.0
16/07:00pm 29.1 24.6 -0.1 15 14.3 N 13 20 7 11 1013.8 1010.9 0.0
16/06:30pm 29.6 25.0 -0.7 14 14.7 NNW 13 17 7 9 1013.4 1010.5 0.0
16/06:00pm 30.5 25.5 -1.0 13 15.3 N 15 20 8 11 1013.2 1010.3 0.0
16/05:30pm 31.8 27.6 -1.1 12 16.1 NNW 11 17 6 9 1012.9 1010.0 0.0
16/05:00pm 32.8 28.1 -1.5 11 16.8 NNW 13 19 7 10 1012.7 1009.8 0.0
16/04:30pm 32.8 27.0 -1.5 11 16.8 NNW 19 32 10 17 1012.6 1009.6 0.0
16/04:00pm 33.2 27.4 -1.2 11 17.0 NNW 19 32 10 17 1012.6 1009.6 0.0
16/03:30pm 33.3 27.8 -2.4 10 17.3 N 17 30 9 16 1012.3 1009.3 0.0
16/03:00pm 33.5 29.1 -2.3 10 17.4 N 11 15 6 8 1012.3 1009.3 0.0
16/02:49pm 33.3 25.1 -1.1 11 17.0 N 32 37 17 20 1012.5 1009.5 0.0
16/02:30pm 33.7 29.1 -0.8 11 17.2 NW 13 17 7 9 1012.5 1009.5 0.0
16/02:00pm 33.4 28.8 -1.0 11 17.0 WNW 13 24 7 13 1012.8 1009.9 0.0
16/01:30pm 32.5 27.4 -1.7 11 16.6 NNW 15 20 8 11 1013.2 1010.3 0.0
16/01:00pm 33.2 27.6 0.0 12 16.7 N 19 26 10 14 1013.7 1010.8 0.0
16/12:30pm 32.5 25.7 -1.7 11 16.6 NE 24 28 13 15 1014.0 1011.0 0.0
16/12:00pm 33.0 26.3 -1.4 11 16.9 N 24 32 13 17 1014.6 1011.7 0.0
16/11:30am 33.0 26.4 -0.2 12 16.6 NNE 24 35 13 19 1014.8 1011.9 0.0
16/11:00am 31.7 27.2 1.9 15 15.3 NNW 15 28 8 15 1015.3 1012.4 0.0
16/10:30am 30.5 27.1 1.9 16 14.6 NNW 9 17 5 9 1015.7 1012.8 0.0
16/10:00am 29.6 25.8 2.0 17 14.0 W 11 17 6 9 1015.9 1013.0 0.0
16/09:30am 28.4 23.8 1.8 18 13.4 W 15 24 8 13 1016.1 1013.2 0.0
16/09:00am 27.3 22.5 2.4 20 12.5 W 17 24 9 13 1016.2 1013.3 0.0
16/08:30am 26.3 21.0 2.9 22 11.8 W 20 28 11 15 1016.1 1013.2 0.0
16/08:00am 24.8 19.9 2.3 23 11.1 W 17 24 9 13 1015.9 1013.0 0.0
16/07:30am 23.4 18.9 2.3 25 10.3 W 15 22 8 12 1015.7 1012.8 0.0
16/07:00am 20.8 18.5 2.6 30 8.8 W 4 7 2 4 1015.2 1012.3 0.0
16/06:30am 20.0 17.1 2.4 31 8.4 WSW 7 11 4 6 1015.1 1012.2 0.0
16/06:00am 19.7 16.7 2.1 31 8.4 W 7 11 4 6 1014.8 1011.9 0.0
16/05:30am 20.6 16.8 2.0 29 8.9 WSW 11 13 6 7 1014.6 1011.7 0.0
16/05:00am 20.8 19.2 2.6 30 8.8 CALM 0 6 0 3 1014.5 1011.6 0.0
16/04:30am 21.0 19.5 2.8 30 8.9 CALM 0 6 0 3 1014.2 1011.3 0.0
16/04:00am 21.5 20.0 3.2 30 9.0 CALM 0 0 0 0 1014.0 1011.0 0.0
16/03:30am 21.2 19.7 3.0 30 8.9 CALM 0 6 0 3 1013.6 1010.7 0.0
16/03:00am 22.3 20.9 3.4 29 9.4 CALM 0 0 0 0 1013.6 1010.7 0.0
16/02:30am 21.7 20.4 3.9 31 8.9 CALM 0 0 0 0 1013.7 1010.8 0.0
16/02:00am 22.7 21.4 4.2 30 9.4 CALM 0 6 0 3 1014.0 1011.0 0.0
16/01:30am 24.5 21.5 4.3 27 10.3 WNW 9 13 5 7 1014.3 1011.4 0.0
16/01:00am 25.6 21.6 4.7 26 10.9 NW 15 20 8 11 1014.5 1011.6 0.0
16/12:30am 25.7 21.5 5.8 28 10.5 NW 17 22 9 12 1014.8 1011.9 0.0
16/12:00am 25.8 22.2 6.9 30 10.2 N 15 20 8 11 1015.1 1012.2 0.0
 
Date/Time
WST
Temp
°C
App
Temp
°C
Dew
Point
Rel
Hum
%
Delta-T
°C
Wind Press
QNH
hPa
Press
MSL
hPa
Rain
since 9 am
mm
Dir
 
Spd
km/h
Gust
km/h
Spd
kts
Gust
kts
15/11:30pm 26.0 22.9 7.1 30 10.3 W 13 19 7 10 1015.4 1012.6 0.0
15/11:00pm 26.8 22.5 6.8 28 10.8 NNW 19 30 10 16 1015.3 1012.4 0.0
15/10:30pm 27.3 22.8 6.1 26 11.4 NNW 19 28 10 15 1015.5 1012.7 0.0
15/10:00pm 27.5 22.8 5.1 24 11.8 NNW 19 30 10 16 1015.9 1013.0 0.0
15/09:30pm 27.8 22.9 4.2 22 12.3 N 19 26 10 14 1016.0 1013.1 0.0
15/09:00pm 28.5 22.6 4.1 21 12.8 N 24 41 13 22 1015.9 1013.0 0.0
15/08:30pm 28.0 23.2 -0.1 16 13.6 NNE 15 35 8 19 1015.9 1013.0 0.0
15/08:00pm 27.6 23.5 -0.5 16 13.5 NNE 11 13 6 7 1015.5 1012.7 0.0
15/07:30pm 28.1 24.3 -0.9 15 13.9 NNE 9 9 5 5 1015.4 1012.6 0.0
15/07:00pm 28.8 26.4 -0.4 15 14.1 NE 2 7 1 4 1015.1 1012.2 0.0
15/06:30pm 29.8 25.5 -1.5 13 15.0 NE 11 13 6 7 1014.8 1011.9 0.0
15/06:00pm 31.1 27.2 -1.6 12 15.8 NNE 9 15 5 8 1014.4 1011.5 0.0
15/05:30pm 32.2 28.2 -2.0 11 16.5 N 9 13 5 7 1014.3 1011.4 0.0
15/05:00pm 33.1 28.3 -2.6 10 17.2 N 13 22 7 12 1014.3 1011.4 0.0
15/04:30pm 33.1 28.3 -2.6 10 17.2 N 13 24 7 13 1014.2 1011.3 0.0
15/04:00pm 33.9 29.6 -2.0 10 17.5 NW 11 17 6 9 1014.0 1011.0 0.0
15/03:30pm 33.7 28.2 -2.1 10 17.4 NNE 17 24 9 13 1014.1 1011.2 0.0
15/03:00pm 33.4 28.3 -2.3 10 17.3 NNE 15 20 8 11 1014.2 1011.3 0.0
15/02:30pm 33.4 29.4 -2.3 10 17.3 S 9 19 5 10 1014.3 1011.4 0.0
15/02:00pm 32.8 27.6 -2.8 10 17.0 E 15 37 8 20 1014.6 1011.7 0.0
15/01:30pm 33.4 28.4 -1.0 11 17.0 N 15 24 8 13 1015.1 1012.2 0.0
15/01:00pm 32.8 26.6 -2.8 10 17.0 NNE 20 32 11 17 1015.5 1012.7 0.0
15/12:30pm 32.2 26.3 -2.0 11 16.5 NE 19 28 10 15 1016.1 1013.2 0.0
15/12:00pm 31.7 27.1 -1.2 12 16.0 ENE 13 19 7 10 1016.5 1013.6 0.0
15/11:30am 31.2 26.3 -0.5 13 15.6 E 15 28 8 15 1016.9 1014.1 0.0
15/11:00am 30.1 25.7 0.6 15 14.7 E 13 20 7 11 1017.5 1014.6 0.0
15/10:30am 29.0 24.0 1.5 17 13.8 E 17 24 9 13 1017.9 1015.0 0.0
15/10:00am 28.3 23.4 1.7 18 13.3 E 17 24 9 13 1018.3 1015.5 0.0
15/09:30am 26.7 21.2 1.9 20 12.3 ESE 20 28 11 15 1018.4 1015.6 0.0
15/09:00am 25.7 19.4 1.8 21 11.8 ESE 24 33 13 18 1018.4 1015.6 0.0
15/08:30am 24.8 17.8 1.7 22 11.3 ESE 28 35 15 19 1018.4 1015.6 0.0
15/08:00am 24.1 17.1 1.7 23 10.9 SE 28 37 15 20 1018.5 1015.7 0.0
15/07:30am 22.9 15.8 1.3 24 10.4 SE 28 35 15 19 1018.4 1015.6 0.0
15/07:28am 23.0 16.0 1.9 25 10.2 SE 28 35 15 19 1018.4 1015.6 0.0
15/07:00am 21.7 17.7 0.8 25 9.8 SSE 11 17 6 9 1018.1 1015.2 0.0
15/06:30am 20.1 15.6 0.0 26 9.2 SSE 13 15 7 8 1017.7 1014.8 0.0
15/06:00am 20.0 15.5 -0.6 25 9.3 SSE 13 17 7 9 1017.1 1014.3 0.0
15/05:30am 20.1 16.3 -1.1 24 9.5 SSE 9 13 5 7 1016.9 1014.1 0.0
15/05:00am 20.0 15.8 -1.2 24 9.5 S 11 15 6 8 1016.6 1013.7 0.0
15/04:30am 20.0 15.8 -1.2 24 9.5 S 11 13 6 7 1016.2 1013.3 0.0
15/04:00am 20.3 15.7 -0.9 24 9.5 S 13 15 7 8 1016.0 1013.1 0.0
15/03:30am 20.7 16.5 -1.2 23 9.8 S 11 13 6 7 1015.9 1013.0 0.0
15/03:00am 21.4 16.8 -1.2 22 10.2 SSW 13 15 7 8 1015.9 1013.0 0.0
15/02:30am 19.4 16.1 -1.1 25 9.1 SSW 6 11 3 6 1015.9 1013.0 0.0
15/02:00am 19.3 17.2 -0.7 26 9.0 CALM 0 0 0 0 1016.0 1013.1 0.0
15/01:30am 19.8 17.6 -1.3 24 9.4 CALM 0 0 0 0 1016.0 1013.1 0.0
15/01:00am 21.1 17.8 -1.4 22 10.1 SSW 6 9 3 5 1016.2 1013.3 0.0
15/12:30am 22.3 18.8 -1.7 20 10.8 WSW 7 11 4 6 1016.6 1013.7 0.0
15/12:00am 24.4 19.8 -1.4 18 11.9 S 13 15 7 8 1016.8 1013.9 0.0
 
Date/Time
WST
Temp
°C
App
Temp
°C
Dew
Point
Rel
Hum
%
Delta-T
°C
Wind Press
QNH
hPa
Press
MSL
hPa
Rain
since 9 am
mm
Dir
 
Spd
km/h
Gust
km/h
Spd
kts
Gust
kts
14/11:30pm 20.5 18.3 -1.3 23 9.8 CALM 0 0 0 0 1017.0 1014.2 0.0

Other Formats:

Comma delimited format used in spreadsheet applications
http://www.bom.gov.au/fwo/IDW60801/IDW60801.99313.axf

JavaScript Object Notation format (JSON) in row-major order
http://www.bom.gov.au/fwo/IDW60801/IDW60801.99313.json